sensor_id;sensor_type;location;lat;lon;timestamp;P1;durP1;ratioP1;P2;durP2;ratioP2
58760;SDS011;44529;47.464;19.014;2023-05-10T00:02:45;4.55;;;2.80;;
58760;SDS011;44529;47.464;19.014;2023-05-10T00:05:49;2.78;;;2.58;;
58760;SDS011;44529;47.464;19.014;2023-05-10T00:08:51;3.65;;;2.92;;
58760;SDS011;44529;47.464;19.014;2023-05-10T00:11:54;3.75;;;3.08;;
58760;SDS011;44529;47.464;19.014;2023-05-10T00:14:56;2.92;;;2.72;;
58760;SDS011;44529;47.464;19.014;2023-05-10T00:17:59;3.72;;;3.42;;
58760;SDS011;44529;47.464;19.014;2023-05-10T00:21:03;4.05;;;3.10;;
58760;SDS011;44529;47.464;19.014;2023-05-10T00:24:06;3.62;;;3.25;;
58760;SDS011;44529;47.464;19.014;2023-05-10T00:27:09;4.87;;;3.17;;
58760;SDS011;44529;47.464;19.014;2023-05-10T00:30:11;5.47;;;3.20;;
58760;SDS011;44529;47.464;19.014;2023-05-10T00:33:14;5.97;;;3.90;;
58760;SDS011;44529;47.464;19.014;2023-05-10T00:36:16;5.47;;;3.53;;
58760;SDS011;44529;47.464;19.014;2023-05-10T00:39:18;6.03;;;3.53;;
58760;SDS011;44529;47.464;19.014;2023-05-10T00:42:21;4.65;;;3.72;;
58760;SDS011;44529;47.464;19.014;2023-05-10T00:45:26;4.30;;;3.65;;
58760;SDS011;44529;47.464;19.014;2023-05-10T00:48:29;3.58;;;3.28;;
58760;SDS011;44529;47.464;19.014;2023-05-10T00:51:32;3.90;;;3.60;;
58760;SDS011;44529;47.464;19.014;2023-05-10T00:54:35;4.00;;;3.33;;
58760;SDS011;44529;47.464;19.014;2023-05-10T00:57:37;4.80;;;3.30;;
58760;SDS011;44529;47.464;19.014;2023-05-10T01:00:41;3.75;;;3.45;;
58760;SDS011;44529;47.464;19.014;2023-05-10T01:03:45;3.95;;;3.60;;
58760;SDS011;44529;47.464;19.014;2023-05-10T01:06:49;4.12;;;3.72;;
58760;SDS011;44529;47.464;19.014;2023-05-10T01:09:52;3.85;;;3.55;;
58760;SDS011;44529;47.464;19.014;2023-05-10T01:12:54;5.60;;;3.55;;
58760;SDS011;44529;47.464;19.014;2023-05-10T01:15:57;4.32;;;3.22;;
58760;SDS011;44529;47.464;19.014;2023-05-10T01:19:00;3.78;;;3.47;;
58760;SDS011;44529;47.464;19.014;2023-05-10T01:36:05;5.82;;;4.03;;
58760;SDS011;44529;47.464;19.014;2023-05-10T01:39:21;5.45;;;3.75;;
58760;SDS011;44529;47.464;19.014;2023-05-10T01:42:28;4.70;;;3.60;;
58760;SDS011;44529;47.464;19.014;2023-05-10T01:45:41;4.12;;;3.50;;
58760;SDS011;44529;47.464;19.014;2023-05-10T01:49:00;4.07;;;3.70;;
58760;SDS011;44529;47.464;19.014;2023-05-10T01:52:06;3.95;;;3.65;;
58760;SDS011;44529;47.464;19.014;2023-05-10T01:55:13;4.60;;;3.62;;
58760;SDS011;44529;47.464;19.014;2023-05-10T01:58:20;6.45;;;4.18;;
58760;SDS011;44529;47.464;19.014;2023-05-10T02:01:24;5.78;;;3.90;;
58760;SDS011;44529;47.464;19.014;2023-05-10T02:04:29;6.78;;;4.00;;
58760;SDS011;44529;47.464;19.014;2023-05-10T02:07:32;4.57;;;4.18;;
58760;SDS011;44529;47.464;19.014;2023-05-10T02:10:37;4.35;;;3.80;;
58760;SDS011;44529;47.464;19.014;2023-05-10T02:13:42;4.97;;;3.90;;
58760;SDS011;44529;47.464;19.014;2023-05-10T02:16:47;4.65;;;3.80;;
58760;SDS011;44529;47.464;19.014;2023-05-10T02:19:51;4.18;;;3.62;;
58760;SDS011;44529;47.464;19.014;2023-05-10T02:22:55;3.75;;;3.42;;
58760;SDS011;44529;47.464;19.014;2023-05-10T02:25:59;4.95;;;4.53;;
58760;SDS011;44529;47.464;19.014;2023-05-10T02:29:03;5.45;;;4.03;;
58760;SDS011;44529;47.464;19.014;2023-05-10T02:32:07;3.70;;;3.40;;
58760;SDS011;44529;47.464;19.014;2023-05-10T02:35:13;6.93;;;3.92;;
58760;SDS011;44529;47.464;19.014;2023-05-10T02:38:17;4.93;;;4.25;;
58760;SDS011;44529;47.464;19.014;2023-05-10T02:41:22;6.80;;;4.28;;
58760;SDS011;44529;47.464;19.014;2023-05-10T02:44:26;4.05;;;3.75;;
58760;SDS011;44529;47.464;19.014;2023-05-10T02:47:32;4.30;;;4.00;;
58760;SDS011;44529;47.464;19.014;2023-05-10T02:50:35;4.03;;;3.72;;
58760;SDS011;44529;47.464;19.014;2023-05-10T02:53:40;4.62;;;4.22;;
58760;SDS011;44529;47.464;19.014;2023-05-10T02:56:53;3.95;;;3.40;;
58760;SDS011;44529;47.464;19.014;2023-05-10T02:59:59;5.25;;;4.05;;
58760;SDS011;44529;47.464;19.014;2023-05-10T03:03:03;8.18;;;3.90;;
58760;SDS011;44529;47.464;19.014;2023-05-10T03:06:05;5.12;;;4.62;;
58760;SDS011;44529;47.464;19.014;2023-05-10T03:09:08;4.45;;;3.65;;
58760;SDS011;44529;47.464;19.014;2023-05-10T03:12:26;4.85;;;3.95;;
58760;SDS011;44529;47.464;19.014;2023-05-10T03:19:06;7.57;;;4.03;;
58760;SDS011;44529;47.464;19.014;2023-05-10T03:22:12;5.05;;;4.10;;
58760;SDS011;44529;47.464;19.014;2023-05-10T03:25:22;3.87;;;3.58;;
58760;SDS011;44529;47.464;19.014;2023-05-10T03:28:26;4.53;;;4.05;;
58760;SDS011;44529;47.464;19.014;2023-05-10T03:31:29;6.22;;;4.30;;
58760;SDS011;44529;47.464;19.014;2023-05-10T03:34:32;4.45;;;3.72;;
58760;SDS011;44529;47.464;19.014;2023-05-10T03:37:34;5.22;;;4.05;;
58760;SDS011;44529;47.464;19.014;2023-05-10T03:40:37;4.12;;;3.72;;
58760;SDS011;44529;47.464;19.014;2023-05-10T03:43:39;4.53;;;4.12;;
58760;SDS011;44529;47.464;19.014;2023-05-10T03:46:43;4.93;;;4.43;;
58760;SDS011;44529;47.464;19.014;2023-05-10T03:49:45;4.87;;;4.12;;
58760;SDS011;44529;47.464;19.014;2023-05-10T03:52:48;4.93;;;4.53;;
58760;SDS011;44529;47.464;19.014;2023-05-10T03:55:50;8.63;;;4.20;;
58760;SDS011;44529;47.464;19.014;2023-05-10T03:58:53;6.03;;;4.20;;
58760;SDS011;44529;47.464;19.014;2023-05-10T04:01:55;6.03;;;4.40;;
58760;SDS011;44529;47.464;19.014;2023-05-10T04:04:58;5.03;;;4.55;;
58760;SDS011;44529;47.464;19.014;2023-05-10T04:08:00;4.87;;;4.45;;
58760;SDS011;44529;47.464;19.014;2023-05-10T04:11:04;6.80;;;4.80;;
58760;SDS011;44529;47.464;19.014;2023-05-10T04:14:08;7.20;;;4.85;;
58760;SDS011;44529;47.464;19.014;2023-05-10T04:17:11;7.05;;;4.37;;
58760;SDS011;44529;47.464;19.014;2023-05-10T04:20:13;5.87;;;4.43;;
58760;SDS011;44529;47.464;19.014;2023-05-10T04:23:16;5.35;;;4.85;;
58760;SDS011;44529;47.464;19.014;2023-05-10T04:26:18;5.32;;;4.40;;
58760;SDS011;44529;47.464;19.014;2023-05-10T04:29:20;7.00;;;4.68;;
58760;SDS011;44529;47.464;19.014;2023-05-10T04:32:23;7.07;;;4.78;;
58760;SDS011;44529;47.464;19.014;2023-05-10T04:35:25;5.47;;;4.43;;
58760;SDS011;44529;47.464;19.014;2023-05-10T04:38:28;7.85;;;4.90;;
58760;SDS011;44529;47.464;19.014;2023-05-10T04:41:31;5.53;;;4.80;;
58760;SDS011;44529;47.464;19.014;2023-05-10T04:44:33;6.37;;;5.05;;
58760;SDS011;44529;47.464;19.014;2023-05-10T04:47:35;9.02;;;4.93;;
58760;SDS011;44529;47.464;19.014;2023-05-10T04:50:39;5.47;;;4.93;;
58760;SDS011;44529;47.464;19.014;2023-05-10T04:53:41;6.68;;;4.68;;
58760;SDS011;44529;47.464;19.014;2023-05-10T04:56:52;5.32;;;4.72;;
58760;SDS011;44529;47.464;19.014;2023-05-10T04:59:54;6.87;;;5.12;;
58760;SDS011;44529;47.464;19.014;2023-05-10T05:02:56;6.07;;;5.47;;
58760;SDS011;44529;47.464;19.014;2023-05-10T05:05:59;6.85;;;5.00;;
58760;SDS011;44529;47.464;19.014;2023-05-10T05:09:01;6.20;;;5.15;;
58760;SDS011;44529;47.464;19.014;2023-05-10T05:12:04;6.30;;;5.70;;
58760;SDS011;44529;47.464;19.014;2023-05-10T05:15:07;5.97;;;5.40;;
58760;SDS011;44529;47.464;19.014;2023-05-10T05:18:11;6.57;;;5.40;;
58760;SDS011;44529;47.464;19.014;2023-05-10T05:21:14;8.20;;;5.15;;
58760;SDS011;44529;47.464;19.014;2023-05-10T05:24:17;6.53;;;4.95;;
58760;SDS011;44529;47.464;19.014;2023-05-10T05:27:20;5.97;;;5.37;;
58760;SDS011;44529;47.464;19.014;2023-05-10T05:30:26;8.40;;;5.10;;
58760;SDS011;44529;47.464;19.014;2023-05-10T05:33:28;8.48;;;5.18;;
58760;SDS011;44529;47.464;19.014;2023-05-10T05:36:31;8.00;;;5.93;;
58760;SDS011;44529;47.464;19.014;2023-05-10T05:39:36;7.80;;;5.07;;
58760;SDS011;44529;47.464;19.014;2023-05-10T05:42:39;7.60;;;5.28;;
58760;SDS011;44529;47.464;19.014;2023-05-10T05:45:41;7.22;;;5.37;;
58760;SDS011;44529;47.464;19.014;2023-05-10T05:48:44;7.53;;;5.32;;
58760;SDS011;44529;47.464;19.014;2023-05-10T05:51:46;5.78;;;5.25;;
58760;SDS011;44529;47.464;19.014;2023-05-10T05:54:49;6.00;;;5.40;;
58760;SDS011;44529;47.464;19.014;2023-05-10T05:57:51;6.05;;;5.50;;
58760;SDS011;44529;47.464;19.014;2023-05-10T06:00:54;8.38;;;5.12;;
58760;SDS011;44529;47.464;19.014;2023-05-10T06:03:56;7.15;;;5.05;;
58760;SDS011;44529;47.464;19.014;2023-05-10T06:06:59;7.10;;;5.10;;
58760;SDS011;44529;47.464;19.014;2023-05-10T06:10:01;6.37;;;5.03;;
58760;SDS011;44529;47.464;19.014;2023-05-10T06:13:05;7.18;;;5.87;;
58760;SDS011;44529;47.464;19.014;2023-05-10T06:16:07;7.87;;;5.60;;
58760;SDS011;44529;47.464;19.014;2023-05-10T06:19:10;8.43;;;5.05;;
58760;SDS011;44529;47.464;19.014;2023-05-10T06:22:12;8.98;;;5.07;;
58760;SDS011;44529;47.464;19.014;2023-05-10T06:25:15;7.30;;;5.07;;
58760;SDS011;44529;47.464;19.014;2023-05-10T06:28:20;5.43;;;4.93;;
58760;SDS011;44529;47.464;19.014;2023-05-10T06:31:22;7.93;;;4.87;;
58760;SDS011;44529;47.464;19.014;2023-05-10T06:34:25;5.57;;;5.07;;
58760;SDS011;44529;47.464;19.014;2023-05-10T06:37:28;5.45;;;4.82;;
58760;SDS011;44529;47.464;19.014;2023-05-10T06:40:30;5.22;;;4.72;;
58760;SDS011;44529;47.464;19.014;2023-05-10T06:43:32;6.65;;;4.90;;
58760;SDS011;44529;47.464;19.014;2023-05-10T06:46:35;7.47;;;5.18;;
58760;SDS011;44529;47.464;19.014;2023-05-10T06:49:37;5.53;;;4.87;;
58760;SDS011;44529;47.464;19.014;2023-05-10T06:52:40;7.70;;;4.45;;
58760;SDS011;44529;47.464;19.014;2023-05-10T06:55:42;6.55;;;4.50;;
58760;SDS011;44529;47.464;19.014;2023-05-10T06:58:44;5.80;;;4.50;;
58760;SDS011;44529;47.464;19.014;2023-05-10T07:01:47;6.18;;;4.40;;
58760;SDS011;44529;47.464;19.014;2023-05-10T07:04:50;4.95;;;4.30;;
58760;SDS011;44529;47.464;19.014;2023-05-10T07:07:53;11.55;;;4.55;;
58760;SDS011;44529;47.464;19.014;2023-05-10T07:11:00;4.62;;;4.12;;
58760;SDS011;44529;47.464;19.014;2023-05-10T07:14:03;4.60;;;4.20;;
58760;SDS011;44529;47.464;19.014;2023-05-10T07:17:05;4.45;;;4.05;;
58760;SDS011;44529;47.464;19.014;2023-05-10T07:20:08;5.15;;;4.32;;
58760;SDS011;44529;47.464;19.014;2023-05-10T07:23:11;5.75;;;4.35;;
58760;SDS011;44529;47.464;19.014;2023-05-10T07:26:13;7.10;;;4.75;;
58760;SDS011;44529;47.464;19.014;2023-05-10T07:29:16;6.62;;;4.28;;
58760;SDS011;44529;47.464;19.014;2023-05-10T07:32:19;9.07;;;4.70;;
58760;SDS011;44529;47.464;19.014;2023-05-10T07:35:21;7.62;;;4.60;;
58760;SDS011;44529;47.464;19.014;2023-05-10T07:38:23;4.40;;;4.00;;
58760;SDS011;44529;47.464;19.014;2023-05-10T07:41:26;4.87;;;4.15;;
58760;SDS011;44529;47.464;19.014;2023-05-10T07:44:29;5.62;;;4.20;;
58760;SDS011;44529;47.464;19.014;2023-05-10T07:47:31;3.78;;;3.47;;
58760;SDS011;44529;47.464;19.014;2023-05-10T07:50:33;7.30;;;3.30;;
58760;SDS011;44529;47.464;19.014;2023-05-10T07:53:36;5.55;;;3.70;;
58760;SDS011;44529;47.464;19.014;2023-05-10T07:56:39;4.78;;;3.72;;
58760;SDS011;44529;47.464;19.014;2023-05-10T07:59:46;3.45;;;3.12;;
58760;SDS011;44529;47.464;19.014;2023-05-10T08:02:49;4.50;;;3.40;;
58760;SDS011;44529;47.464;19.014;2023-05-10T08:05:51;5.05;;;3.67;;
58760;SDS011;44529;47.464;19.014;2023-05-10T08:08:53;5.82;;;3.50;;
58760;SDS011;44529;47.464;19.014;2023-05-10T08:11:56;5.22;;;3.33;;
58760;SDS011;44529;47.464;19.014;2023-05-10T08:15:00;4.53;;;3.70;;
58760;SDS011;44529;47.464;19.014;2023-05-10T08:18:03;4.43;;;3.58;;
58760;SDS011;44529;47.464;19.014;2023-05-10T08:21:06;4.28;;;3.70;;
58760;SDS011;44529;47.464;19.014;2023-05-10T08:24:08;4.25;;;3.80;;
58760;SDS011;44529;47.464;19.014;2023-05-10T08:27:11;5.18;;;3.47;;
58760;SDS011;44529;47.464;19.014;2023-05-10T08:30:13;6.40;;;3.55;;
58760;SDS011;44529;47.464;19.014;2023-05-10T08:33:17;6.87;;;3.60;;
58760;SDS011;44529;47.464;19.014;2023-05-10T08:36:20;3.30;;;3.00;;
58760;SDS011;44529;47.464;19.014;2023-05-10T08:39:23;3.62;;;3.33;;
58760;SDS011;44529;47.464;19.014;2023-05-10T08:42:32;6.25;;;3.30;;
58760;SDS011;44529;47.464;19.014;2023-05-10T08:45:39;6.78;;;3.47;;
58760;SDS011;44529;47.464;19.014;2023-05-10T08:48:44;4.30;;;3.78;;
58760;SDS011;44529;47.464;19.014;2023-05-10T08:51:49;5.90;;;3.75;;
58760;SDS011;44529;47.464;19.014;2023-05-10T08:54:54;5.62;;;3.40;;
58760;SDS011;44529;47.464;19.014;2023-05-10T08:57:56;3.83;;;3.17;;
58760;SDS011;44529;47.464;19.014;2023-05-10T09:00:59;7.30;;;3.50;;
58760;SDS011;44529;47.464;19.014;2023-05-10T09:04:03;5.55;;;3.10;;
58760;SDS011;44529;47.464;19.014;2023-05-10T09:07:06;7.87;;;3.60;;
58760;SDS011;44529;47.464;19.014;2023-05-10T09:10:09;3.33;;;3.03;;
58760;SDS011;44529;47.464;19.014;2023-05-10T09:13:15;7.10;;;3.30;;
58760;SDS011;44529;47.464;19.014;2023-05-10T09:16:19;7.43;;;3.55;;
58760;SDS011;44529;47.464;19.014;2023-05-10T09:19:23;7.47;;;3.20;;
58760;SDS011;44529;47.464;19.014;2023-05-10T09:22:26;10.85;;;3.40;;
58760;SDS011;44529;47.464;19.014;2023-05-10T09:25:30;5.28;;;3.45;;
58760;SDS011;44529;47.464;19.014;2023-05-10T09:28:49;5.65;;;3.20;;
58760;SDS011;44529;47.464;19.014;2023-05-10T09:31:59;6.57;;;3.28;;
58760;SDS011;44529;47.464;19.014;2023-05-10T09:35:09;3.72;;;2.60;;
58760;SDS011;44529;47.464;19.014;2023-05-10T09:38:16;5.78;;;3.12;;
58760;SDS011;44529;47.464;19.014;2023-05-10T09:41:19;6.97;;;3.10;;
58760;SDS011;44529;47.464;19.014;2023-05-10T09:44:24;4.22;;;3.87;;
58760;SDS011;44529;47.464;19.014;2023-05-10T09:47:27;6.05;;;3.35;;
58760;SDS011;44529;47.464;19.014;2023-05-10T09:50:30;5.10;;;2.80;;
58760;SDS011;44529;47.464;19.014;2023-05-10T09:53:32;6.90;;;3.30;;
58760;SDS011;44529;47.464;19.014;2023-05-10T09:56:35;3.12;;;2.80;;
58760;SDS011;44529;47.464;19.014;2023-05-10T09:59:42;4.90;;;2.92;;
58760;SDS011;44529;47.464;19.014;2023-05-10T10:02:47;2.85;;;2.65;;
58760;SDS011;44529;47.464;19.014;2023-05-10T10:05:56;3.78;;;2.90;;
58760;SDS011;44529;47.464;19.014;2023-05-10T10:08:58;7.43;;;3.15;;
58760;SDS011;44529;47.464;19.014;2023-05-10T10:12:02;4.53;;;3.12;;
58760;SDS011;44529;47.464;19.014;2023-05-10T10:15:04;4.40;;;3.00;;
58760;SDS011;44529;47.464;19.014;2023-05-10T10:18:08;4.25;;;2.50;;
58760;SDS011;44529;47.464;19.014;2023-05-10T10:21:15;3.90;;;2.70;;
58760;SDS011;44529;47.464;19.014;2023-05-10T10:24:17;5.50;;;2.50;;
58760;SDS011;44529;47.464;19.014;2023-05-10T10:27:22;2.90;;;2.53;;
58760;SDS011;44529;47.464;19.014;2023-05-10T10:30:39;3.40;;;2.70;;
58760;SDS011;44529;47.464;19.014;2023-05-10T10:33:51;7.78;;;2.95;;
58760;SDS011;44529;47.464;19.014;2023-05-10T10:37:05;5.43;;;2.72;;
58760;SDS011;44529;47.464;19.014;2023-05-10T10:40:27;4.35;;;2.70;;
58760;SDS011;44529;47.464;19.014;2023-05-10T10:43:35;3.28;;;2.40;;
58760;SDS011;44529;47.464;19.014;2023-05-10T10:46:58;4.80;;;3.10;;
58760;SDS011;44529;47.464;19.014;2023-05-10T10:53:10;3.72;;;2.40;;
58760;SDS011;44529;47.464;19.014;2023-05-10T10:59:26;3.78;;;2.87;;
58760;SDS011;44529;47.464;19.014;2023-05-10T11:02:48;3.58;;;2.65;;
58760;SDS011;44529;47.464;19.014;2023-05-10T11:05:53;3.55;;;2.42;;
58760;SDS011;44529;47.464;19.014;2023-05-10T11:09:10;4.43;;;2.35;;
58760;SDS011;44529;47.464;19.014;2023-05-10T11:12:13;2.40;;;2.20;;
58760;SDS011;44529;47.464;19.014;2023-05-10T11:15:16;4.72;;;2.28;;
58760;SDS011;44529;47.464;19.014;2023-05-10T11:21:32;2.33;;;2.15;;
58760;SDS011;44529;47.464;19.014;2023-05-10T11:24:34;8.73;;;2.60;;
58760;SDS011;44529;47.464;19.014;2023-05-10T11:27:37;2.20;;;2.00;;
58760;SDS011;44529;47.464;19.014;2023-05-10T11:30:40;2.80;;;2.10;;
58760;SDS011;44529;47.464;19.014;2023-05-10T11:33:45;3.08;;;2.15;;
58760;SDS011;44529;47.464;19.014;2023-05-10T11:36:51;4.18;;;2.10;;
58760;SDS011;44529;47.464;19.014;2023-05-10T11:39:55;2.10;;;1.95;;
58760;SDS011;44529;47.464;19.014;2023-05-10T11:42:58;3.47;;;1.70;;
58760;SDS011;44529;47.464;19.014;2023-05-10T11:46:02;3.25;;;1.80;;
58760;SDS011;44529;47.464;19.014;2023-05-10T11:49:05;3.05;;;2.03;;
58760;SDS011;44529;47.464;19.014;2023-05-10T11:52:09;1.92;;;1.80;;
58760;SDS011;44529;47.464;19.014;2023-05-10T11:55:13;3.33;;;1.90;;
58760;SDS011;44529;47.464;19.014;2023-05-10T11:58:15;2.78;;;2.10;;
58760;SDS011;44529;47.464;19.014;2023-05-10T12:01:20;3.75;;;2.28;;
58760;SDS011;44529;47.464;19.014;2023-05-10T12:04:23;5.50;;;2.12;;
58760;SDS011;44529;47.464;19.014;2023-05-10T12:07:29;6.10;;;1.80;;
58760;SDS011;44529;47.464;19.014;2023-05-10T12:10:34;6.12;;;2.12;;
58760;SDS011;44529;47.464;19.014;2023-05-10T12:13:40;4.47;;;2.12;;
58760;SDS011;44529;47.464;19.014;2023-05-10T12:16:43;2.47;;;2.10;;
58760;SDS011;44529;47.464;19.014;2023-05-10T12:19:46;3.22;;;2.00;;
58760;SDS011;44529;47.464;19.014;2023-05-10T12:22:53;2.00;;;1.80;;
58760;SDS011;44529;47.464;19.014;2023-05-10T12:26:01;6.57;;;2.65;;
58760;SDS011;44529;47.464;19.014;2023-05-10T12:29:13;2.28;;;2.17;;
58760;SDS011;44529;47.464;19.014;2023-05-10T12:32:15;3.42;;;2.22;;
58760;SDS011;44529;47.464;19.014;2023-05-10T12:35:18;5.62;;;2.30;;
58760;SDS011;44529;47.464;19.014;2023-05-10T12:38:44;2.55;;;1.87;;
58760;SDS011;44529;47.464;19.014;2023-05-10T12:41:50;2.03;;;1.83;;
58760;SDS011;44529;47.464;19.014;2023-05-10T12:44:56;3.62;;;1.85;;
58760;SDS011;44529;47.464;19.014;2023-05-10T12:47:59;1.85;;;1.75;;
58760;SDS011;44529;47.464;19.014;2023-05-10T12:51:02;7.95;;;2.30;;
58760;SDS011;44529;47.464;19.014;2023-05-10T12:54:05;3.20;;;2.22;;
58760;SDS011;44529;47.464;19.014;2023-05-10T12:57:07;2.00;;;1.90;;
58760;SDS011;44529;47.464;19.014;2023-05-10T13:00:10;1.87;;;1.77;;
58760;SDS011;44529;47.464;19.014;2023-05-10T13:03:13;3.03;;;1.62;;
58760;SDS011;44529;47.464;19.014;2023-05-10T13:06:15;5.20;;;2.10;;
58760;SDS011;44529;47.464;19.014;2023-05-10T13:09:17;1.85;;;1.70;;
58760;SDS011;44529;47.464;19.014;2023-05-10T13:12:20;1.58;;;1.48;;
58760;SDS011;44529;47.464;19.014;2023-05-10T13:15:23;4.75;;;1.85;;
58760;SDS011;44529;47.464;19.014;2023-05-10T13:18:25;2.40;;;1.55;;
58760;SDS011;44529;47.464;19.014;2023-05-10T13:21:28;1.60;;;1.48;;
58760;SDS011;44529;47.464;19.014;2023-05-10T13:24:31;4.78;;;1.65;;
58760;SDS011;44529;47.464;19.014;2023-05-10T13:27:33;3.03;;;1.67;;
58760;SDS011;44529;47.464;19.014;2023-05-10T13:30:35;5.22;;;1.85;;
58760;SDS011;44529;47.464;19.014;2023-05-10T13:33:38;3.00;;;1.55;;
58760;SDS011;44529;47.464;19.014;2023-05-10T13:36:40;4.85;;;2.00;;
58760;SDS011;44529;47.464;19.014;2023-05-10T13:39:43;5.55;;;1.60;;
58760;SDS011;44529;47.464;19.014;2023-05-10T13:42:45;5.93;;;2.50;;
58760;SDS011;44529;47.464;19.014;2023-05-10T13:45:47;3.25;;;2.00;;
58760;SDS011;44529;47.464;19.014;2023-05-10T13:48:50;2.17;;;1.87;;
58760;SDS011;44529;47.464;19.014;2023-05-10T13:51:52;2.40;;;1.73;;
58760;SDS011;44529;47.464;19.014;2023-05-10T13:54:54;7.70;;;2.30;;
58760;SDS011;44529;47.464;19.014;2023-05-10T13:57:57;2.70;;;1.75;;
58760;SDS011;44529;47.464;19.014;2023-05-10T14:01:00;4.57;;;1.50;;
58760;SDS011;44529;47.464;19.014;2023-05-10T14:04:02;2.45;;;1.80;;
58760;SDS011;44529;47.464;19.014;2023-05-10T14:07:05;2.67;;;1.85;;
58760;SDS011;44529;47.464;19.014;2023-05-10T14:10:07;3.12;;;1.27;;
58760;SDS011;44529;47.464;19.014;2023-05-10T14:13:10;3.30;;;1.45;;
58760;SDS011;44529;47.464;19.014;2023-05-10T14:16:12;4.93;;;1.40;;
58760;SDS011;44529;47.464;19.014;2023-05-10T14:19:16;2.53;;;1.45;;
58760;SDS011;44529;47.464;19.014;2023-05-10T14:22:19;2.75;;;1.60;;
58760;SDS011;44529;47.464;19.014;2023-05-10T14:25:21;3.75;;;1.60;;
58760;SDS011;44529;47.464;19.014;2023-05-10T14:28:24;1.65;;;1.55;;
58760;SDS011;44529;47.464;19.014;2023-05-10T14:31:27;2.55;;;1.30;;
58760;SDS011;44529;47.464;19.014;2023-05-10T14:34:29;2.45;;;1.50;;
58760;SDS011;44529;47.464;19.014;2023-05-10T14:37:31;2.12;;;1.65;;
58760;SDS011;44529;47.464;19.014;2023-05-10T14:40:34;2.05;;;1.50;;
58760;SDS011;44529;47.464;19.014;2023-05-10T14:43:36;7.00;;;1.80;;
58760;SDS011;44529;47.464;19.014;2023-05-10T14:46:39;1.37;;;1.27;;
58760;SDS011;44529;47.464;19.014;2023-05-10T14:49:41;1.37;;;1.27;;
58760;SDS011;44529;47.464;19.014;2023-05-10T14:52:44;4.93;;;1.60;;
58760;SDS011;44529;47.464;19.014;2023-05-10T14:55:46;3.33;;;1.52;;
58760;SDS011;44529;47.464;19.014;2023-05-10T14:58:49;6.12;;;1.80;;
58760;SDS011;44529;47.464;19.014;2023-05-10T15:01:52;6.25;;;1.70;;
58760;SDS011;44529;47.464;19.014;2023-05-10T15:04:55;1.55;;;1.40;;
58760;SDS011;44529;47.464;19.014;2023-05-10T15:07:58;5.65;;;1.45;;
58760;SDS011;44529;47.464;19.014;2023-05-10T15:11:00;1.60;;;1.17;;
58760;SDS011;44529;47.464;19.014;2023-05-10T15:14:03;3.10;;;1.40;;
58760;SDS011;44529;47.464;19.014;2023-05-10T15:17:06;1.83;;;1.08;;
58760;SDS011;44529;47.464;19.014;2023-05-10T15:20:09;8.88;;;1.50;;
58760;SDS011;44529;47.464;19.014;2023-05-10T15:23:11;2.03;;;1.23;;
58760;SDS011;44529;47.464;19.014;2023-05-10T15:26:15;1.73;;;1.30;;
58760;SDS011;44529;47.464;19.014;2023-05-10T15:29:17;1.52;;;1.30;;
58760;SDS011;44529;47.464;19.014;2023-05-10T15:32:21;3.62;;;1.42;;
58760;SDS011;44529;47.464;19.014;2023-05-10T15:35:25;3.85;;;1.30;;
58760;SDS011;44529;47.464;19.014;2023-05-10T15:38:27;1.73;;;1.60;;
58760;SDS011;44529;47.464;19.014;2023-05-10T15:41:30;2.35;;;1.45;;
58760;SDS011;44529;47.464;19.014;2023-05-10T15:44:32;3.15;;;1.42;;
58760;SDS011;44529;47.464;19.014;2023-05-10T15:47:37;3.40;;;1.52;;
58760;SDS011;44529;47.464;19.014;2023-05-10T15:50:41;2.47;;;1.58;;
58760;SDS011;44529;47.464;19.014;2023-05-10T15:53:44;1.58;;;1.30;;
58760;SDS011;44529;47.464;19.014;2023-05-10T15:57:06;2.53;;;1.27;;
58760;SDS011;44529;47.464;19.014;2023-05-10T16:00:09;3.85;;;1.40;;
58760;SDS011;44529;47.464;19.014;2023-05-10T16:03:12;2.55;;;1.10;;
58760;SDS011;44529;47.464;19.014;2023-05-10T16:06:15;2.95;;;1.55;;
58760;SDS011;44529;47.464;19.014;2023-05-10T16:09:17;1.92;;;1.20;;
58760;SDS011;44529;47.464;19.014;2023-05-10T16:12:19;1.60;;;1.50;;
58760;SDS011;44529;47.464;19.014;2023-05-10T16:15:22;3.45;;;1.30;;
58760;SDS011;44529;47.464;19.014;2023-05-10T16:18:24;1.80;;;1.70;;
58760;SDS011;44529;47.464;19.014;2023-05-10T16:21:26;4.03;;;1.50;;
58760;SDS011;44529;47.464;19.014;2023-05-10T16:24:30;2.85;;;1.80;;
58760;SDS011;44529;47.464;19.014;2023-05-10T16:27:33;2.22;;;1.30;;
58760;SDS011;44529;47.464;19.014;2023-05-10T16:30:36;2.05;;;1.85;;
58760;SDS011;44529;47.464;19.014;2023-05-10T16:33:38;2.10;;;1.90;;
58760;SDS011;44529;47.464;19.014;2023-05-10T16:36:41;7.43;;;1.60;;
58760;SDS011;44529;47.464;19.014;2023-05-10T16:39:43;2.37;;;1.25;;
58760;SDS011;44529;47.464;19.014;2023-05-10T16:42:45;3.75;;;1.42;;
58760;SDS011;44529;47.464;19.014;2023-05-10T16:45:48;2.20;;;1.52;;
58760;SDS011;44529;47.464;19.014;2023-05-10T16:48:50;2.42;;;1.35;;
58760;SDS011;44529;47.464;19.014;2023-05-10T16:51:52;2.95;;;1.50;;
58760;SDS011;44529;47.464;19.014;2023-05-10T16:54:55;5.82;;;2.37;;
58760;SDS011;44529;47.464;19.014;2023-05-10T16:57:57;1.92;;;1.80;;
58760;SDS011;44529;47.464;19.014;2023-05-10T17:01:02;3.45;;;2.00;;
58760;SDS011;44529;47.464;19.014;2023-05-10T17:04:04;4.78;;;2.08;;
58760;SDS011;44529;47.464;19.014;2023-05-10T17:07:06;3.10;;;1.90;;
58760;SDS011;44529;47.464;19.014;2023-05-10T17:10:09;3.08;;;1.83;;
58760;SDS011;44529;47.464;19.014;2023-05-10T17:13:13;3.55;;;2.20;;
58760;SDS011;44529;47.464;19.014;2023-05-10T17:16:15;2.65;;;2.05;;
58760;SDS011;44529;47.464;19.014;2023-05-10T17:19:18;2.65;;;2.30;;
58760;SDS011;44529;47.464;19.014;2023-05-10T17:22:20;3.33;;;2.50;;
58760;SDS011;44529;47.464;19.014;2023-05-10T17:25:22;3.92;;;1.98;;
58760;SDS011;44529;47.464;19.014;2023-05-10T17:28:24;4.28;;;2.05;;
58760;SDS011;44529;47.464;19.014;2023-05-10T17:31:27;4.22;;;2.12;;
58760;SDS011;44529;47.464;19.014;2023-05-10T17:34:30;3.42;;;2.37;;
58760;SDS011;44529;47.464;19.014;2023-05-10T17:37:33;2.87;;;2.20;;
58760;SDS011;44529;47.464;19.014;2023-05-10T17:40:35;2.65;;;2.45;;
58760;SDS011;44529;47.464;19.014;2023-05-10T17:43:41;4.93;;;2.10;;
58760;SDS011;44529;47.464;19.014;2023-05-10T17:46:44;2.00;;;1.90;;
58760;SDS011;44529;47.464;19.014;2023-05-10T17:49:46;2.42;;;2.22;;
58760;SDS011;44529;47.464;19.014;2023-05-10T17:52:49;3.75;;;2.30;;
58760;SDS011;44529;47.464;19.014;2023-05-10T17:55:51;3.00;;;2.22;;
58760;SDS011;44529;47.464;19.014;2023-05-10T17:58:54;3.53;;;2.45;;
58760;SDS011;44529;47.464;19.014;2023-05-10T18:01:57;2.33;;;2.10;;
58760;SDS011;44529;47.464;19.014;2023-05-10T18:04:59;3.50;;;2.30;;
58760;SDS011;44529;47.464;19.014;2023-05-10T18:08:02;2.30;;;2.10;;
58760;SDS011;44529;47.464;19.014;2023-05-10T18:11:06;3.97;;;2.25;;
58760;SDS011;44529;47.464;19.014;2023-05-10T18:14:08;5.47;;;2.62;;
58760;SDS011;44529;47.464;19.014;2023-05-10T18:17:11;3.37;;;2.53;;
58760;SDS011;44529;47.464;19.014;2023-05-10T18:20:13;5.32;;;2.47;;
58760;SDS011;44529;47.464;19.014;2023-05-10T18:23:16;5.20;;;2.53;;
58760;SDS011;44529;47.464;19.014;2023-05-10T18:26:18;2.53;;;2.33;;
58760;SDS011;44529;47.464;19.014;2023-05-10T18:29:20;5.50;;;2.40;;
58760;SDS011;44529;47.464;19.014;2023-05-10T18:32:23;3.47;;;2.58;;
58760;SDS011;44529;47.464;19.014;2023-05-10T18:35:25;2.62;;;2.40;;
58760;SDS011;44529;47.464;19.014;2023-05-10T18:38:27;4.65;;;2.30;;